createdAt,value
2023-05-01T00:00:13.688Z,1017.93
2023-05-01T00:01:13.653Z,1017.86
2023-05-01T00:02:13.710Z,1017.89
2023-05-01T00:03:13.818Z,1017.86
2023-05-01T00:04:13.795Z,1017.88
2023-05-01T00:05:13.673Z,1017.87
2023-05-01T00:06:13.649Z,1017.84
2023-05-01T00:07:13.604Z,1017.88
2023-05-01T00:08:13.597Z,1017.95
2023-05-01T00:09:13.578Z,1017.93
2023-05-01T00:10:13.558Z,1017.89
2023-05-01T00:11:13.544Z,1017.87
2023-05-01T00:12:13.668Z,1017.91
2023-05-01T00:13:13.543Z,1017.87
2023-05-01T00:14:13.543Z,1017.89
2023-05-01T00:15:13.496Z,1017.90
2023-05-01T00:16:13.617Z,1017.86
2023-05-01T00:17:13.474Z,1017.90
2023-05-01T00:18:13.538Z,1017.90
2023-05-01T00:19:13.456Z,1017.88
2023-05-01T00:20:13.448Z,1017.89
2023-05-01T00:21:13.469Z,1017.91
2023-05-01T00:22:13.425Z,1017.84
2023-05-01T00:23:13.421Z,1017.88
2023-05-01T00:24:13.407Z,1017.80
2023-05-01T00:25:13.393Z,1017.80
2023-05-01T00:26:13.417Z,1017.80
2023-05-01T00:27:13.394Z,1017.83
2023-05-01T00:28:13.386Z,1017.81
2023-05-01T00:29:13.345Z,1017.82
2023-05-01T00:30:13.357Z,1017.79
2023-05-01T00:31:13.363Z,1017.81
2023-05-01T00:32:13.365Z,1017.75
2023-05-01T00:33:13.302Z,1017.74
2023-05-01T00:34:13.299Z,1017.75
2023-05-01T00:35:13.292Z,1017.71
2023-05-01T00:36:13.279Z,1017.70
2023-05-01T00:37:13.304Z,1017.75
2023-05-01T00:38:13.263Z,1017.69
2023-05-01T00:39:13.254Z,1017.76
2023-05-01T00:40:13.232Z,1017.79
2023-05-01T00:41:13.274Z,1017.73
2023-05-01T00:42:13.218Z,1017.65
2023-05-01T00:43:13.212Z,1017.71
2023-05-01T00:44:13.211Z,1017.65
2023-05-01T00:45:13.180Z,1017.69
2023-05-01T00:46:13.258Z,1017.66
2023-05-01T00:47:13.170Z,1017.64
2023-05-01T00:48:13.169Z,1017.64
2023-05-01T00:49:13.136Z,1017.62
2023-05-01T00:50:13.122Z,1017.59
2023-05-01T00:51:13.117Z,1017.62
2023-05-01T00:52:13.130Z,1017.64
2023-05-01T00:53:13.112Z,1017.59
2023-05-01T00:54:13.110Z,1017.59
2023-05-01T00:55:13.077Z,1017.59
2023-05-01T00:56:13.067Z,1017.58
2023-05-01T00:57:13.108Z,1017.57
2023-05-01T00:58:13.035Z,1017.61
2023-05-01T00:59:13.025Z,1017.57
2023-05-01T01:00:13.031Z,1017.59
2023-05-01T01:01:13.108Z,1017.59
2023-05-01T01:02:13.002Z,1017.60
2023-05-01T01:03:12.988Z,1017.54
2023-05-01T01:04:13.027Z,1017.52
2023-05-01T01:05:12.965Z,1017.49
2023-05-01T01:06:12.944Z,1017.49
2023-05-01T01:07:12.944Z,1017.49
2023-05-01T01:08:12.950Z,1017.52
2023-05-01T01:09:12.922Z,1017.49
2023-05-01T01:10:12.926Z,1017.45
2023-05-01T01:11:12.899Z,1017.49
2023-05-01T01:12:12.885Z,1017.47
2023-05-01T01:13:12.878Z,1017.48
2023-05-01T01:14:12.886Z,1017.45
2023-05-01T01:15:12.880Z,1017.48
2023-05-01T01:16:12.899Z,1017.46
2023-05-01T01:17:13.015Z,1017.42
2023-05-01T01:18:12.900Z,1017.44
2023-05-01T01:19:12.811Z,1017.48
2023-05-01T01:20:12.820Z,1017.46
2023-05-01T01:21:12.790Z,1017.48
2023-05-01T01:22:12.779Z,1017.51
2023-05-01T01:23:12.766Z,1017.47
2023-05-01T01:24:12.753Z,1017.49
2023-05-01T01:25:12.777Z,1017.46
2023-05-01T01:26:12.734Z,1017.43
2023-05-01T01:27:12.744Z,1017.46
2023-05-01T01:28:12.713Z,1017.47
2023-05-01T01:29:12.717Z,1017.43
2023-05-01T01:30:12.686Z,1017.38
2023-05-01T01:31:12.744Z,1017.41
2023-05-01T01:32:12.697Z,1017.44
2023-05-01T01:33:12.656Z,1017.38
2023-05-01T01:34:12.652Z,1017.42
2023-05-01T01:35:12.642Z,1017.37
2023-05-01T01:36:12.644Z,1017.36
2023-05-01T01:37:12.620Z,1017.32
2023-05-01T01:38:12.605Z,1017.35
2023-05-01T01:39:12.601Z,1017.32
2023-05-01T01:40:12.593Z,1017.31
2023-05-01T01:41:12.652Z,1017.30
2023-05-01T01:42:12.569Z,1017.37
2023-05-01T01:43:12.547Z,1017.28
2023-05-01T01:44:12.534Z,1017.29
2023-05-01T01:45:12.530Z,1017.27
2023-05-01T01:46:12.579Z,1017.32
2023-05-01T01:47:12.540Z,1017.31
2023-05-01T01:48:12.585Z,1017.26
2023-05-01T01:49:12.487Z,1017.25
2023-05-01T01:50:12.488Z,1017.24
2023-05-01T01:51:12.467Z,1017.21
2023-05-01T01:52:12.445Z,1017.30
2023-05-01T01:53:12.440Z,1017.25
2023-05-01T01:54:12.422Z,1017.23
2023-05-01T01:55:12.441Z,1017.20
2023-05-01T01:56:12.410Z,1017.22
2023-05-01T01:57:12.391Z,1017.16
2023-05-01T01:58:12.389Z,1017.13
2023-05-01T01:59:12.440Z,1017.19
2023-05-01T02:00:12.385Z,1017.18
2023-05-01T02:01:12.396Z,1017.21
2023-05-01T02:02:12.430Z,1017.16
2023-05-01T02:03:12.431Z,1017.12
2023-05-01T02:04:12.401Z,1017.19
2023-05-01T02:05:12.328Z,1017.13
2023-05-01T02:06:12.337Z,1017.09
2023-05-01T02:07:12.304Z,1017.10
2023-05-01T02:08:12.271Z,1017.07
2023-05-01T02:09:12.262Z,1017.12
2023-05-01T02:10:12.267Z,1017.09
2023-05-01T02:11:12.240Z,1017.10
2023-05-01T02:12:12.257Z,1017.07
2023-05-01T02:13:12.227Z,1017.07
2023-05-01T02:14:12.220Z,1017.11
2023-05-01T02:15:12.200Z,1017.03
2023-05-01T02:16:12.218Z,1017.07
2023-05-01T02:17:12.185Z,1017.01
2023-05-01T02:18:12.158Z,1017.00
2023-05-01T02:19:12.154Z,1017.01
2023-05-01T02:20:12.185Z,1017.01
2023-05-01T02:21:12.155Z,1016.96
2023-05-01T02:22:12.122Z,1016.93
2023-05-01T02:23:12.113Z,1016.99
2023-05-01T02:24:12.109Z,1017.02
2023-05-01T02:25:12.130Z,1016.95
2023-05-01T02:26:12.075Z,1016.96
2023-05-01T02:27:12.093Z,1017.01
2023-05-01T02:28:12.058Z,1016.93
2023-05-01T02:29:12.049Z,1017.00
2023-05-01T02:30:12.038Z,1017.00
2023-05-01T02:31:12.057Z,1016.92
2023-05-01T02:32:12.034Z,1016.92
2023-05-01T02:33:12.008Z,1016.88
2023-05-01T02:34:11.985Z,1016.89
2023-05-01T02:35:11.984Z,1016.93
2023-05-01T02:36:11.986Z,1016.90
2023-05-01T02:37:11.989Z,1016.97
2023-05-01T02:38:11.942Z,1016.90
2023-05-01T02:39:11.934Z,1016.92
2023-05-01T02:40:11.923Z,1016.86
2023-05-01T02:41:11.944Z,1016.83
2023-05-01T02:42:11.947Z,1016.80
2023-05-01T02:43:11.917Z,1016.84
2023-05-01T02:44:11.875Z,1016.82
2023-05-01T02:45:11.875Z,1016.84
2023-05-01T02:46:11.885Z,1016.78
2023-05-01T02:47:11.905Z,1016.78
2023-05-01T02:48:11.926Z,1016.78
2023-05-01T02:49:11.826Z,1016.78
2023-05-01T02:50:11.811Z,1016.80
2023-05-01T02:51:11.812Z,1016.75
2023-05-01T02:52:11.850Z,1016.79
2023-05-01T02:53:11.810Z,1016.65
2023-05-01T02:54:11.774Z,1016.72
2023-05-01T02:55:11.764Z,1016.71
2023-05-01T02:56:11.752Z,1016.71
2023-05-01T02:57:11.747Z,1016.69
2023-05-01T02:58:11.757Z,1016.73
2023-05-01T02:59:11.722Z,1016.73
2023-05-01T03:00:11.706Z,1016.69
2023-05-01T03:01:11.765Z,1016.65
2023-05-01T03:02:11.685Z,1016.68
2023-05-01T03:03:11.750Z,1016.69
2023-05-01T03:04:11.807Z,1016.63
2023-05-01T03:05:11.649Z,1016.65
2023-05-01T03:06:11.689Z,1016.57
2023-05-01T03:07:11.643Z,1016.56
2023-05-01T03:08:11.710Z,1016.51
2023-05-01T03:09:11.654Z,1016.52
2023-05-01T03:10:11.594Z,1016.55
2023-05-01T03:11:11.582Z,1016.54
2023-05-01T03:12:11.577Z,1016.52
2023-05-01T03:13:11.600Z,1016.50
2023-05-01T03:14:11.594Z,1016.47
2023-05-01T03:15:11.563Z,1016.41
2023-05-01T03:16:11.572Z,1016.46
2023-05-01T03:17:11.528Z,1016.46
2023-05-01T03:18:11.588Z,1016.40
2023-05-01T03:19:11.523Z,1016.37
2023-05-01T03:20:11.485Z,1016.42
2023-05-01T03:21:11.521Z,1016.36
2023-05-01T03:22:11.470Z,1016.38
2023-05-01T03:23:11.453Z,1016.37
2023-05-01T03:24:11.478Z,1016.34
2023-05-01T03:25:11.442Z,1016.34
2023-05-01T03:26:11.455Z,1016.39
2023-05-01T03:27:11.423Z,1016.34
2023-05-01T03:28:11.408Z,1016.32
2023-05-01T03:29:11.390Z,1016.30
2023-05-01T03:30:11.405Z,1016.29
2023-05-01T03:31:11.406Z,1016.28
2023-05-01T03:32:11.408Z,1016.36
2023-05-01T03:33:11.437Z,1016.33
2023-05-01T03:34:11.347Z,1016.31
2023-05-01T03:35:11.415Z,1016.35
2023-05-01T03:36:11.331Z,1016.32
2023-05-01T03:37:11.301Z,1016.29
2023-05-01T03:38:11.292Z,1016.31
2023-05-01T03:39:11.294Z,1016.29
2023-05-01T03:40:11.399Z,1016.33
2023-05-01T03:41:11.284Z,1016.30
2023-05-01T03:42:11.243Z,1016.30
2023-05-01T03:43:11.260Z,1016.30
2023-05-01T03:44:11.227Z,1016.28
2023-05-01T03:45:11.236Z,1016.25
2023-05-01T03:46:11.295Z,1016.29
2023-05-01T03:47:11.194Z,1016.28
2023-05-01T03:48:11.198Z,1016.30
2023-05-01T03:49:11.182Z,1016.29
2023-05-01T03:50:11.172Z,1016.27
2023-05-01T03:51:11.189Z,1016.24
2023-05-01T03:52:11.140Z,1016.27
2023-05-01T03:53:11.147Z,1016.28
2023-05-01T03:54:11.115Z,1016.26
2023-05-01T03:55:11.120Z,1016.27
2023-05-01T03:56:11.212Z,1016.27
2023-05-01T03:57:11.122Z,1016.29
2023-05-01T03:58:11.073Z,1016.19
2023-05-01T03:59:11.068Z,1016.21
2023-05-01T04:00:11.048Z,1016.18
2023-05-01T04:01:11.063Z,1016.22
2023-05-01T04:02:11.102Z,1016.23
2023-05-01T04:03:11.076Z,1016.23
2023-05-01T04:04:11.203Z,1016.24
2023-05-01T04:05:11.014Z,1016.21
2023-05-01T04:06:10.998Z,1016.24
2023-05-01T04:07:10.995Z,1016.25
2023-05-01T04:08:10.996Z,1016.16
2023-05-01T04:09:10.961Z,1016.18
2023-05-01T04:10:10.975Z,1016.20
2023-05-01T04:11:10.946Z,1016.17
2023-05-01T04:12:10.955Z,1016.18
2023-05-01T04:13:10.928Z,1016.14
2023-05-01T04:14:10.905Z,1016.20
2023-05-01T04:15:10.918Z,1016.14
2023-05-01T04:16:11.040Z,1016.12
2023-05-01T04:17:10.877Z,1016.07
2023-05-01T04:18:10.960Z,1016.08
2023-05-01T04:19:10.854Z,1016.09
2023-05-01T04:20:10.832Z,1016.17
2023-05-01T04:21:10.826Z,1016.16
2023-05-01T04:22:10.826Z,1016.14
2023-05-01T04:23:10.809Z,1016.16
2023-05-01T04:24:10.829Z,1016.10
2023-05-01T04:25:10.789Z,1016.15
2023-05-01T04:26:10.776Z,1016.17
2023-05-01T04:27:10.768Z,1016.21
2023-05-01T04:28:10.902Z,1016.15
2023-05-01T04:29:10.739Z,1016.19
2023-05-01T04:30:10.736Z,1016.15
2023-05-01T04:31:10.787Z,1016.09
2023-05-01T04:32:10.707Z,1016.10
2023-05-01T04:33:10.749Z,1016.17
2023-05-01T04:34:10.728Z,1016.11
2023-05-01T04:35:10.678Z,1016.09
2023-05-01T04:36:10.655Z,1016.10
2023-05-01T04:37:10.653Z,1016.11
2023-05-01T04:38:10.860Z,1016.10
2023-05-01T04:39:10.668Z,1016.08
2023-05-01T04:40:11.691Z,1016.05
2023-05-01T04:41:10.602Z,1016.07
2023-05-01T04:42:10.613Z,1016.07
2023-05-01T04:43:10.593Z,1016.02
2023-05-01T04:44:10.697Z,1016.08
2023-05-01T04:45:10.567Z,1016.06
2023-05-01T04:46:10.616Z,1016.09
2023-05-01T04:47:10.654Z,1016.06
2023-05-01T04:48:10.568Z,1016.01
2023-05-01T04:49:10.520Z,1016.05
2023-05-01T04:50:10.528Z,1016.09
2023-05-01T04:51:10.536Z,1016.06
2023-05-01T04:52:10.486Z,1016.06
2023-05-01T04:53:10.482Z,1016.05
2023-05-01T04:54:10.461Z,1015.99
2023-05-01T04:55:10.468Z,1015.98
2023-05-01T04:56:10.465Z,1015.96
2023-05-01T04:57:10.467Z,1015.94
2023-05-01T04:58:10.427Z,1015.98
2023-05-01T04:59:10.424Z,1016.03
2023-05-01T05:00:10.425Z,1015.98
2023-05-01T05:01:10.471Z,1015.98
2023-05-01T05:02:10.382Z,1015.95
2023-05-01T05:03:10.514Z,1015.95
2023-05-01T05:04:10.399Z,1015.95
2023-05-01T05:05:10.353Z,1015.96
2023-05-01T05:06:10.383Z,1015.98
2023-05-01T05:07:10.341Z,1015.97
2023-05-01T05:08:10.327Z,1016.01
2023-05-01T05:09:10.357Z,1015.96
2023-05-01T05:10:10.318Z,1016.00
2023-05-01T05:11:10.300Z,1015.97
2023-05-01T05:12:10.277Z,1015.98
2023-05-01T05:13:10.270Z,1015.94
2023-05-01T05:14:10.252Z,1015.93
2023-05-01T05:15:10.265Z,1015.96
2023-05-01T05:16:10.285Z,1015.96
2023-05-01T05:17:10.229Z,1015.95
2023-05-01T05:18:10.270Z,1015.89
2023-05-01T05:19:10.196Z,1015.83
2023-05-01T05:20:10.188Z,1015.86
2023-05-01T05:21:10.203Z,1015.80
2023-05-01T05:22:10.192Z,1015.82
2023-05-01T05:23:10.166Z,1015.85
2023-05-01T05:24:10.156Z,1015.77
2023-05-01T05:25:10.154Z,1015.83
2023-05-01T05:26:10.126Z,1015.83
2023-05-01T05:27:10.132Z,1015.79
2023-05-01T05:28:10.113Z,1015.75
2023-05-01T05:29:10.087Z,1015.77
2023-05-01T05:30:10.086Z,1015.81
2023-05-01T05:31:10.096Z,1015.76
2023-05-01T05:32:10.153Z,1015.75
2023-05-01T05:33:10.113Z,1015.75
2023-05-01T05:34:10.040Z,1015.69
2023-05-01T05:35:10.027Z,1015.71
2023-05-01T05:36:10.055Z,1015.70
2023-05-01T05:37:10.012Z,1015.71
2023-05-01T05:38:10.029Z,1015.69
2023-05-01T05:39:09.992Z,1015.71
2023-05-01T05:40:09.982Z,1015.69
2023-05-01T05:41:10.022Z,1015.67
2023-05-01T05:42:09.957Z,1015.71
2023-05-01T05:43:09.965Z,1015.62
2023-05-01T05:44:09.940Z,1015.66
2023-05-01T05:45:09.936Z,1015.61
2023-05-01T05:46:09.972Z,1015.67
2023-05-01T05:47:09.933Z,1015.60
2023-05-01T05:48:10.009Z,1015.58
2023-05-01T05:49:09.936Z,1015.59
2023-05-01T05:50:09.914Z,1015.61
2023-05-01T05:51:09.891Z,1015.57
2023-05-01T05:52:09.882Z,1015.60
2023-05-01T05:53:09.861Z,1015.61
2023-05-01T05:54:09.830Z,1015.57
2023-05-01T05:55:09.813Z,1015.59
2023-05-01T05:56:09.831Z,1015.58
2023-05-01T05:57:09.843Z,1015.59
2023-05-01T05:58:09.797Z,1015.58
2023-05-01T05:59:09.784Z,1015.57
2023-05-01T06:00:09.768Z,1015.53
2023-05-01T06:01:09.764Z,1015.58
2023-05-01T06:02:09.803Z,1015.60
2023-05-01T06:03:09.832Z,1015.56
2023-05-01T06:04:09.756Z,1015.56
2023-05-01T06:05:09.878Z,1015.56
2023-05-01T06:06:10.188Z,1015.60
2023-05-01T06:07:09.710Z,1015.47
2023-05-01T06:08:09.699Z,1015.57
2023-05-01T06:09:09.665Z,1015.51
2023-05-01T06:10:09.662Z,1015.49
2023-05-01T06:11:09.649Z,1015.51
2023-05-01T06:12:09.637Z,1015.51
2023-05-01T06:13:14.116Z,1015.47
2023-05-01T06:14:10.633Z,1015.55
2023-05-01T06:15:09.605Z,1015.51
2023-05-01T06:16:09.652Z,1015.57
2023-05-01T06:17:09.576Z,1015.55
2023-05-01T06:18:09.616Z,1015.52
2023-05-01T06:19:09.557Z,1015.53
2023-05-01T06:20:09.569Z,1015.56
2023-05-01T06:21:09.538Z,1015.53
2023-05-01T06:22:09.548Z,1015.58
2023-05-01T06:23:09.671Z,1015.54
2023-05-01T06:24:09.513Z,1015.60
2023-05-01T06:25:09.495Z,1015.54
2023-05-01T06:26:09.488Z,1015.52
2023-05-01T06:27:09.489Z,1015.54
2023-05-01T06:28:09.486Z,1015.51
2023-05-01T06:29:09.473Z,1015.48
2023-05-01T06:30:09.441Z,1015.49
2023-05-01T06:31:09.547Z,1015.46
2023-05-01T06:32:09.427Z,1015.48
2023-05-01T06:33:09.496Z,1015.49
2023-05-01T06:34:09.399Z,1015.45
2023-05-01T06:35:09.411Z,1015.40
2023-05-01T06:36:09.406Z,1015.40
2023-05-01T06:37:09.381Z,1015.43
2023-05-01T06:38:09.357Z,1015.40
2023-05-01T06:39:09.357Z,1015.45
2023-05-01T06:40:09.350Z,1015.49
2023-05-01T06:41:09.342Z,1015.41
2023-05-01T06:42:09.336Z,1015.43
2023-05-01T06:43:09.316Z,1015.42
2023-05-01T06:44:09.293Z,1015.39
2023-05-01T06:45:09.270Z,1015.37
2023-05-01T06:46:09.340Z,1015.38
2023-05-01T06:47:09.345Z,1015.39
2023-05-01T06:48:09.293Z,1015.38
2023-05-01T06:49:09.229Z,1015.38
2023-05-01T06:50:09.254Z,1015.41
2023-05-01T06:51:09.215Z,1015.36
2023-05-01T06:52:09.228Z,1015.41
2023-05-01T06:53:09.219Z,1015.35
2023-05-01T06:54:09.188Z,1015.42
2023-05-01T06:55:09.177Z,1015.37
2023-05-01T06:56:09.179Z,1015.37
2023-05-01T06:57:09.179Z,1015.37
2023-05-01T06:58:19.909Z,1015.38
2023-05-01T06:59:10.116Z,1015.34
2023-05-01T07:00:09.138Z,1015.35
2023-05-01T07:01:09.137Z,1015.41
2023-05-01T07:02:09.198Z,1015.40
2023-05-01T07:03:09.108Z,1015.41
2023-05-01T07:04:09.074Z,1015.41
2023-05-01T07:05:09.077Z,1015.34
2023-05-01T07:06:09.146Z,1015.40
2023-05-01T07:07:09.030Z,1015.36
2023-05-01T07:08:09.050Z,1015.36
2023-05-01T07:09:09.012Z,1015.38
2023-05-01T07:10:09.038Z,1015.33
2023-05-01T07:11:08.995Z,1015.31
2023-05-01T07:12:08.986Z,1015.34
2023-05-01T07:13:08.969Z,1015.42
2023-05-01T07:14:08.976Z,1015.38
2023-05-01T07:15:08.975Z,1015.38
2023-05-01T07:16:08.964Z,1015.34
2023-05-01T07:17:08.954Z,1015.31
2023-05-01T07:18:09.056Z,1015.28
2023-05-01T07:19:08.907Z,1015.30
2023-05-01T07:20:08.907Z,1015.28
2023-05-01T07:21:08.914Z,1015.36
2023-05-01T07:22:08.871Z,1015.31
2023-05-01T07:23:08.872Z,1015.36
2023-05-01T07:24:08.880Z,1015.31
2023-05-01T07:25:08.846Z,1015.35
2023-05-01T07:26:08.860Z,1015.28
2023-05-01T07:27:08.812Z,1015.28
2023-05-01T07:28:08.845Z,1015.32
2023-05-01T07:29:08.806Z,1015.29
2023-05-01T07:30:08.794Z,1015.26
2023-05-01T07:31:08.783Z,1015.26
2023-05-01T07:32:08.867Z,1015.19
2023-05-01T07:33:08.820Z,1015.22
2023-05-01T07:34:08.773Z,1015.17
2023-05-01T07:35:08.740Z,1015.17
2023-05-01T07:36:08.755Z,1015.15
2023-05-01T07:37:08.711Z,1015.16
2023-05-01T07:38:08.735Z,1015.14
2023-05-01T07:39:08.711Z,1015.16
2023-05-01T07:40:08.706Z,1015.19
2023-05-01T07:41:08.671Z,1015.17
2023-05-01T07:42:08.659Z,1015.18
2023-05-01T07:43:08.658Z,1015.12
2023-05-01T07:44:08.657Z,1015.07
2023-05-01T07:45:08.620Z,1015.10
2023-05-01T07:46:08.703Z,1015.08
2023-05-01T07:47:08.624Z,1015.11
2023-05-01T07:48:08.757Z,1015.13
2023-05-01T07:49:08.577Z,1014.99
2023-05-01T07:50:08.565Z,1015.01
2023-05-01T07:51:08.555Z,1015.04
2023-05-01T07:52:08.579Z,1015.05
2023-05-01T07:53:08.539Z,1015.01
2023-05-01T07:54:08.525Z,1015.05
2023-05-01T07:55:08.515Z,1014.99
2023-05-01T07:56:08.638Z,1015.04
2023-05-01T07:57:08.501Z,1015.05
2023-05-01T07:58:08.504Z,1015.08
2023-05-01T07:59:08.499Z,1014.96
2023-05-01T08:00:08.465Z,1015.00
2023-05-01T08:01:08.443Z,1015.01
2023-05-01T08:02:08.508Z,1014.90
2023-05-01T08:03:08.705Z,1014.90
2023-05-01T08:04:08.560Z,1014.92
2023-05-01T08:05:08.403Z,1014.87
2023-05-01T08:06:08.479Z,1014.89
2023-05-01T08:07:08.379Z,1014.84
2023-05-01T08:08:08.375Z,1014.77
2023-05-01T08:09:08.400Z,1014.80
2023-05-01T08:10:08.352Z,1014.81
2023-05-01T08:11:08.334Z,1014.81
2023-05-01T08:12:08.384Z,1014.79
2023-05-01T08:13:08.313Z,1014.79
2023-05-01T08:14:08.331Z,1014.76
2023-05-01T08:15:08.294Z,1014.78
2023-05-01T08:16:08.322Z,1014.78
2023-05-01T08:17:08.281Z,1014.85
2023-05-01T08:18:08.296Z,1014.85
2023-05-01T08:19:08.285Z,1014.84
2023-05-01T08:20:08.255Z,1014.76
2023-05-01T08:21:08.234Z,1014.78
2023-05-01T08:22:08.247Z,1014.82
2023-05-01T08:23:08.207Z,1014.76
2023-05-01T08:24:08.201Z,1014.79
2023-05-01T08:25:08.192Z,1014.78
2023-05-01T08:26:08.212Z,1014.77
2023-05-01T08:27:08.165Z,1014.72
2023-05-01T08:28:08.183Z,1014.65
2023-05-01T08:29:08.147Z,1014.71
2023-05-01T08:30:08.194Z,1014.69
2023-05-01T08:31:08.141Z,1014.69
2023-05-01T08:32:08.116Z,1014.73
2023-05-01T08:33:08.146Z,1014.70
2023-05-01T08:34:08.085Z,1014.77
2023-05-01T08:35:08.098Z,1014.70
2023-05-01T08:36:08.067Z,1014.72
2023-05-01T08:37:08.052Z,1014.72
2023-05-01T08:38:08.069Z,1014.75
2023-05-01T08:39:08.037Z,1014.70
2023-05-01T08:40:08.034Z,1014.68
2023-05-01T08:41:08.019Z,1014.66
2023-05-01T08:42:08.012Z,1014.61
2023-05-01T08:43:08.022Z,1014.62
2023-05-01T08:44:08.007Z,1014.62
2023-05-01T08:45:07.990Z,1014.65
2023-05-01T08:46:08.016Z,1014.62
2023-05-01T08:47:08.193Z,1014.62
2023-05-01T08:48:08.099Z,1014.57
2023-05-01T08:49:07.924Z,1014.59
2023-05-01T08:50:07.921Z,1014.58
2023-05-01T08:51:07.943Z,1014.55
2023-05-01T08:52:07.914Z,1014.46
2023-05-01T08:53:07.884Z,1014.55
2023-05-01T08:54:07.870Z,1014.53
2023-05-01T08:55:07.862Z,1014.49
2023-05-01T08:56:07.880Z,1014.54
2023-05-01T08:57:10.249Z,1014.55
2023-05-01T08:58:07.841Z,1014.45
2023-05-01T08:59:07.839Z,1014.57
2023-05-01T09:00:07.826Z,1014.42
2023-05-01T09:01:07.855Z,1014.52
2023-05-01T09:02:08.048Z,1014.44
2023-05-01T09:03:07.948Z,1014.40
2023-05-01T09:04:07.834Z,1014.42
2023-05-01T09:05:07.758Z,1014.45
2023-05-01T09:06:07.816Z,1014.40
2023-05-01T09:07:07.743Z,1014.41
2023-05-01T09:08:07.717Z,1014.40
2023-05-01T09:09:07.708Z,1014.42
2023-05-01T09:10:07.703Z,1014.37
2023-05-01T09:11:07.678Z,1014.29
2023-05-01T09:12:07.688Z,1014.21
2023-05-01T09:13:07.684Z,1014.23
2023-05-01T09:14:07.654Z,1014.30
2023-05-01T09:15:07.697Z,1014.31
2023-05-01T09:16:07.750Z,1014.28
2023-05-01T09:17:07.617Z,1014.20
2023-05-01T09:18:07.715Z,1014.16
2023-05-01T09:19:07.626Z,1014.21
2023-05-01T09:20:07.709Z,1014.18
2023-05-01T09:21:07.571Z,1014.13
2023-05-01T09:22:07.568Z,1014.09
2023-05-01T09:23:07.565Z,1014.14
2023-05-01T09:24:07.561Z,1014.02
2023-05-01T09:25:07.537Z,1014.06
2023-05-01T09:26:07.528Z,1014.06
2023-05-01T09:27:07.512Z,1014.05
2023-05-01T09:28:07.542Z,1014.05
2023-05-01T09:29:07.490Z,1014.12
2023-05-01T09:30:07.500Z,1014.06
2023-05-01T09:31:07.478Z,1014.14
2023-05-01T09:32:07.547Z,1014.07
2023-05-01T09:33:07.533Z,1014.04
2023-05-01T09:34:07.451Z,1014.10
2023-05-01T09:35:07.440Z,1013.98
2023-05-01T09:36:07.411Z,1014.00
2023-05-01T09:37:07.403Z,1013.86
2023-05-01T09:38:07.411Z,1013.92
2023-05-01T09:39:07.410Z,1013.97
2023-05-01T09:40:07.402Z,1013.99
2023-05-01T09:41:07.364Z,1013.94
2023-05-01T09:42:07.342Z,1013.90
2023-05-01T09:43:07.335Z,1014.05
2023-05-01T09:44:07.347Z,1014.14
2023-05-01T09:45:07.309Z,1013.95
2023-05-01T09:46:07.437Z,1013.96
2023-05-01T09:47:07.301Z,1013.86
2023-05-01T09:48:07.415Z,1013.86
2023-05-01T09:49:07.273Z,1013.88
2023-05-01T09:50:07.286Z,1013.89
2023-05-01T09:51:07.252Z,1013.79
2023-05-01T09:52:07.272Z,1013.83
2023-05-01T09:53:07.239Z,1013.77
2023-05-01T09:54:07.218Z,1013.79
2023-05-01T09:55:07.220Z,1013.74
2023-05-01T09:56:07.258Z,1013.67
2023-05-01T09:57:07.199Z,1013.64
2023-05-01T09:58:07.172Z,1013.66
2023-05-01T09:59:07.168Z,1013.65
2023-05-01T10:00:07.194Z,1013.74
2023-05-01T10:01:07.169Z,1013.79
2023-05-01T10:02:07.164Z,1013.69
2023-05-01T10:03:08.593Z,1013.71
2023-05-01T10:04:07.277Z,1013.63
2023-05-01T10:05:07.142Z,1013.63
2023-05-01T10:06:07.107Z,1013.63
2023-05-01T10:07:07.102Z,1013.64
2023-05-01T10:08:07.071Z,1013.76
2023-05-01T10:09:07.079Z,1013.67
2023-05-01T10:10:07.071Z,1013.59
2023-05-01T10:11:07.043Z,1013.55
2023-05-01T10:12:07.022Z,1013.61
2023-05-01T10:13:07.022Z,1013.57
2023-05-01T10:14:06.998Z,1013.59
2023-05-01T10:15:21.101Z,1013.55
2023-05-01T10:16:07.003Z,1013.51
2023-05-01T10:17:07.144Z,1013.59
2023-05-01T10:18:07.005Z,1013.47
2023-05-01T10:19:06.961Z,1013.44
2023-05-01T10:20:06.976Z,1013.47
2023-05-01T10:21:06.961Z,1013.38
2023-05-01T10:22:06.934Z,1013.29
2023-05-01T10:23:06.919Z,1013.32
2023-05-01T10:24:06.922Z,1013.29
2023-05-01T10:25:06.915Z,1013.34
2023-05-01T10:26:07.197Z,1013.30
2023-05-01T10:27:06.882Z,1013.28
2023-05-01T10:28:06.865Z,1013.31
2023-05-01T10:29:06.867Z,1013.37
2023-05-01T10:30:06.878Z,1013.28
2023-05-01T10:31:06.852Z,1013.37
2023-05-01T10:32:06.842Z,1013.36
2023-05-01T10:33:06.827Z,1013.34
2023-05-01T10:34:06.795Z,1013.37
2023-05-01T10:35:06.808Z,1013.30
2023-05-01T10:36:06.795Z,1013.28
2023-05-01T10:37:06.774Z,1013.21
2023-05-01T10:38:06.757Z,1013.26
2023-05-01T10:39:06.734Z,1013.23
2023-05-01T10:40:06.753Z,1013.23
2023-05-01T10:41:06.721Z,1013.21
2023-05-01T10:42:06.742Z,1013.21
2023-05-01T10:43:06.691Z,1013.22
2023-05-01T10:44:06.682Z,1013.23
2023-05-01T10:45:06.723Z,1013.19
2023-05-01T10:46:06.715Z,1013.14
2023-05-01T10:47:06.656Z,1013.06
2023-05-01T10:48:06.679Z,1013.04
2023-05-01T10:49:06.631Z,1013.02
2023-05-01T10:50:06.613Z,1013.00
2023-05-01T10:51:06.650Z,1013.03
2023-05-01T10:52:06.615Z,1012.98
2023-05-01T10:53:06.588Z,1012.98
2023-05-01T10:54:06.570Z,1012.97
2023-05-01T10:55:06.569Z,1012.89
2023-05-01T10:56:06.551Z,1012.93
2023-05-01T10:57:06.593Z,1012.89
2023-05-01T10:58:06.538Z,1012.93
2023-05-01T10:59:06.565Z,1012.84
2023-05-01T11:00:06.515Z,1012.87
2023-05-01T11:01:06.501Z,1012.87
2023-05-01T11:02:06.588Z,1012.80
2023-05-01T11:03:06.574Z,1012.85
2023-05-01T11:04:06.463Z,1012.81
2023-05-01T11:05:06.507Z,1012.84
2023-05-01T11:06:06.550Z,1012.82
2023-05-01T11:07:06.509Z,1012.78
2023-05-01T11:08:06.444Z,1012.76
2023-05-01T11:09:06.429Z,1012.77
2023-05-01T11:10:06.402Z,1012.70
2023-05-01T11:11:06.420Z,1012.72
2023-05-01T11:12:06.405Z,1012.72
2023-05-01T11:13:06.376Z,1012.67
2023-05-01T11:14:06.388Z,1012.74
2023-05-01T11:15:06.353Z,1012.70
2023-05-01T11:16:06.357Z,1012.68
2023-05-01T11:17:06.354Z,1012.62
2023-05-01T11:18:06.514Z,1012.63
2023-05-01T11:19:06.314Z,1012.61
2023-05-01T11:20:06.326Z,1012.53
2023-05-01T11:21:06.285Z,1012.56
2023-05-01T11:22:06.270Z,1012.56
2023-05-01T11:23:06.269Z,1012.48
2023-05-01T11:24:06.371Z,1012.50
2023-05-01T11:25:06.236Z,1012.48
2023-05-01T11:26:06.299Z,1012.44
2023-05-01T11:27:06.247Z,1012.39
2023-05-01T11:28:06.207Z,1012.39
2023-05-01T11:29:06.201Z,1012.44
2023-05-01T11:30:06.196Z,1012.40
2023-05-01T11:31:06.174Z,1012.36
2023-05-01T11:32:06.283Z,1012.39
2023-05-01T11:33:08.361Z,1012.34
2023-05-01T11:34:06.153Z,1012.33
2023-05-01T11:35:06.164Z,1012.19
2023-05-01T11:36:06.147Z,1012.28
2023-05-01T11:37:06.122Z,1012.24
2023-05-01T11:38:06.098Z,1012.22
2023-05-01T11:39:06.140Z,1012.20
2023-05-01T11:40:06.242Z,1012.23
2023-05-01T11:41:06.074Z,1012.16
2023-05-01T11:42:06.085Z,1012.21
2023-05-01T11:43:06.078Z,1012.21
2023-05-01T11:44:06.059Z,1012.16
2023-05-01T11:45:06.074Z,1012.17
2023-05-01T11:46:06.036Z,1012.20
2023-05-01T11:47:06.010Z,1012.19
2023-05-01T11:48:06.062Z,1012.11
2023-05-01T11:49:06.018Z,1012.18
2023-05-01T11:50:06.005Z,1012.09
2023-05-01T11:51:05.962Z,1012.08
2023-05-01T11:52:05.952Z,1012.10
2023-05-01T11:53:05.952Z,1012.03
2023-05-01T11:54:05.961Z,1012.07
2023-05-01T11:55:05.940Z,1012.09
2023-05-01T11:56:13.276Z,1012.12
2023-05-01T11:57:06.914Z,1012.14
2023-05-01T11:58:05.915Z,1012.07
2023-05-01T11:59:05.884Z,1011.94
2023-05-01T12:00:05.918Z,1011.98
2023-05-01T12:01:05.886Z,1011.98
2023-05-01T12:02:05.892Z,1011.96
2023-05-01T12:03:06.248Z,1011.91
2023-05-01T12:04:05.907Z,1011.89
2023-05-01T12:05:05.994Z,1011.86